sensor_id;sensor_type;location;lat;lon;timestamp;temperature;humidity
1716;DHT22;855;48.824;9.220;2023-11-22T15:50:00;6.20;72.50
1716;DHT22;855;48.824;9.220;2023-11-22T15:52:26;6.00;72.20
1716;DHT22;855;48.824;9.220;2023-11-22T15:54:53;5.80;72.20
1716;DHT22;855;48.824;9.220;2023-11-22T15:57:20;5.90;73.10
1716;DHT22;855;48.824;9.220;2023-11-22T16:03:19;5.90;73.50
1716;DHT22;855;48.824;9.220;2023-11-22T16:05:49;5.90;73.10
1716;DHT22;855;48.824;9.220;2023-11-22T16:08:17;5.80;72.50
1716;DHT22;855;48.824;9.220;2023-11-22T16:10:44;5.90;72.50
1716;DHT22;855;48.824;9.220;2023-11-22T16:16:36;6.00;72.60
1716;DHT22;855;48.824;9.220;2023-11-22T16:19:04;5.90;73.40
1716;DHT22;855;48.824;9.220;2023-11-22T16:21:32;6.00;73.10
1716;DHT22;855;48.824;9.220;2023-11-22T16:23:59;5.90;73.40
1716;DHT22;855;48.824;9.220;2023-11-22T16:26:26;5.90;73.10
1716;DHT22;855;48.824;9.220;2023-11-22T16:28:54;5.80;73.10
1716;DHT22;855;48.824;9.220;2023-11-22T16:31:22;5.80;73.10
1716;DHT22;855;48.824;9.220;2023-11-22T16:33:48;5.90;72.70
1716;DHT22;855;48.824;9.220;2023-11-22T16:36:21;5.90;72.10
1716;DHT22;855;48.824;9.220;2023-11-22T16:38:50;5.90;72.10
1716;DHT22;855;48.824;9.220;2023-11-22T16:41:17;5.80;72.50
1716;DHT22;855;48.824;9.220;2023-11-22T16:44:20;5.80;73.70
1716;DHT22;855;48.824;9.220;2023-11-22T16:46:59;5.60;73.40
1716;DHT22;855;48.824;9.220;2023-11-22T16:49:29;5.40;73.80
1716;DHT22;855;48.824;9.220;2023-11-22T16:51:56;5.30;74.30
1716;DHT22;855;48.824;9.220;2023-11-22T16:54:24;5.10;74.50
1716;DHT22;855;48.824;9.220;2023-11-22T16:56:52;5.10;73.80
1716;DHT22;855;48.824;9.220;2023-11-22T16:59:18;5.10;74.30
1716;DHT22;855;48.824;9.220;2023-11-22T17:04:52;5.20;74.50
1716;DHT22;855;48.824;9.220;2023-11-22T17:07:22;5.30;74.60
1716;DHT22;855;48.824;9.220;2023-11-22T17:09:50;5.30;74.10
1716;DHT22;855;48.824;9.220;2023-11-22T17:12:17;5.30;74.30
1716;DHT22;855;48.824;9.220;2023-11-22T17:14:49;5.30;73.80
1716;DHT22;855;48.824;9.220;2023-11-22T17:17:16;5.10;73.80
1716;DHT22;855;48.824;9.220;2023-11-22T17:19:45;5.10;74.60
1716;DHT22;855;48.824;9.220;2023-11-22T17:22:28;5.10;74.50
1716;DHT22;855;48.824;9.220;2023-11-22T17:24:58;5.10;74.50
1716;DHT22;855;48.824;9.220;2023-11-22T17:27:25;5.00;75.00
1716;DHT22;855;48.824;9.220;2023-11-22T17:29:52;4.90;74.60
1716;DHT22;855;48.824;9.220;2023-11-22T17:32:32;4.80;75.40
1716;DHT22;855;48.824;9.220;2023-11-22T17:34:59;4.80;75.80
1716;DHT22;855;48.824;9.220;2023-11-22T17:37:26;4.90;75.60
1716;DHT22;855;48.824;9.220;2023-11-22T17:39:53;5.00;75.40
1716;DHT22;855;48.824;9.220;2023-11-22T17:42:21;5.00;74.20
1716;DHT22;855;48.824;9.220;2023-11-22T17:44:54;4.90;74.50
1716;DHT22;855;48.824;9.220;2023-11-22T17:47:21;4.90;75.00
1716;DHT22;855;48.824;9.220;2023-11-22T17:49:48;4.90;75.90
1716;DHT22;855;48.824;9.220;2023-11-22T17:52:15;4.80;75.90
1716;DHT22;855;48.824;9.220;2023-11-22T17:54:42;4.90;76.70
1716;DHT22;855;48.824;9.220;2023-11-22T17:57:12;5.00;76.80
1716;DHT22;855;48.824;9.220;2023-11-22T17:59:40;4.90;76.00
1716;DHT22;855;48.824;9.220;2023-11-22T18:02:07;4.80;75.90
1716;DHT22;855;48.824;9.220;2023-11-22T18:04:34;4.70;75.10
1716;DHT22;855;48.824;9.220;2023-11-22T18:07:01;4.70;75.10
1716;DHT22;855;48.824;9.220;2023-11-22T18:09:28;4.80;75.80
1716;DHT22;855;48.824;9.220;2023-11-22T18:11:55;4.80;75.50
1716;DHT22;855;48.824;9.220;2023-11-22T18:14:24;4.80;75.00
1716;DHT22;855;48.824;9.220;2023-11-22T18:16:52;4.90;74.70
1716;DHT22;855;48.824;9.220;2023-11-22T18:19:19;4.90;73.70
1716;DHT22;855;48.824;9.220;2023-11-22T18:21:46;4.80;73.90
1716;DHT22;855;48.824;9.220;2023-11-22T18:24:13;4.80;73.90
1716;DHT22;855;48.824;9.220;2023-11-22T18:26:40;4.80;72.90
1716;DHT22;855;48.824;9.220;2023-11-22T18:29:09;4.80;72.70
1716;DHT22;855;48.824;9.220;2023-11-22T18:31:37;4.80;72.70
1716;DHT22;855;48.824;9.220;2023-11-22T18:34:05;4.80;72.60
1716;DHT22;855;48.824;9.220;2023-11-22T18:36:32;4.90;72.30
1716;DHT22;855;48.824;9.220;2023-11-22T18:38:59;5.00;72.50
1716;DHT22;855;48.824;9.220;2023-11-22T18:41:34;5.10;72.60
1716;DHT22;855;48.824;9.220;2023-11-22T18:44:02;5.20;72.70
1716;DHT22;855;48.824;9.220;2023-11-22T18:46:30;5.30;72.90
1716;DHT22;855;48.824;9.220;2023-11-22T18:51:27;5.40;72.50
1716;DHT22;855;48.824;9.220;2023-11-22T18:53:55;5.50;72.30
1716;DHT22;855;48.824;9.220;2023-11-22T18:56:22;5.60;71.90
1716;DHT22;855;48.824;9.220;2023-11-22T18:58:49;5.70;71.80
1716;DHT22;855;48.824;9.220;2023-11-22T19:01:21;5.70;71.40
1716;DHT22;855;48.824;9.220;2023-11-22T19:03:48;5.70;70.90
1716;DHT22;855;48.824;9.220;2023-11-22T19:06:16;5.70;70.90
1716;DHT22;855;48.824;9.220;2023-11-22T19:08:45;5.70;71.20
1716;DHT22;855;48.824;9.220;2023-11-22T19:11:12;5.60;71.20
1716;DHT22;855;48.824;9.220;2023-11-22T19:13:39;5.60;71.60
1716;DHT22;855;48.824;9.220;2023-11-22T19:16:06;5.60;71.90
1716;DHT22;855;48.824;9.220;2023-11-22T19:18:33;5.60;72.30
1716;DHT22;855;48.824;9.220;2023-11-22T19:21:00;5.50;72.60
1716;DHT22;855;48.824;9.220;2023-11-22T19:23:30;5.30;72.10
1716;DHT22;855;48.824;9.220;2023-11-22T19:25:58;5.30;72.90
1716;DHT22;855;48.824;9.220;2023-11-22T19:28:25;5.20;73.80
1716;DHT22;855;48.824;9.220;2023-11-22T19:30:52;5.20;73.90
1716;DHT22;855;48.824;9.220;2023-11-22T19:33:19;5.20;73.80
1716;DHT22;855;48.824;9.220;2023-11-22T19:35:46;5.20;74.10
1716;DHT22;855;48.824;9.220;2023-11-22T19:38:25;5.20;74.20
1716;DHT22;855;48.824;9.220;2023-11-22T19:40:54;5.20;74.10
1716;DHT22;855;48.824;9.220;2023-11-22T19:43:22;5.10;73.90
1716;DHT22;855;48.824;9.220;2023-11-22T19:45:49;5.10;74.20
1716;DHT22;855;48.824;9.220;2023-11-22T19:48:17;5.10;74.10
1716;DHT22;855;48.824;9.220;2023-11-22T19:50:46;5.10;74.70
1716;DHT22;855;48.824;9.220;2023-11-22T19:53:13;5.10;74.70
1716;DHT22;855;48.824;9.220;2023-11-22T19:55:40;5.10;74.20
1716;DHT22;855;48.824;9.220;2023-11-22T19:58:07;5.00;74.30
1716;DHT22;855;48.824;9.220;2023-11-22T20:00:35;5.00;74.10
1716;DHT22;855;48.824;9.220;2023-11-22T20:03:02;5.00;74.20
1716;DHT22;855;48.824;9.220;2023-11-22T20:05:30;4.90;74.20
1716;DHT22;855;48.824;9.220;2023-11-22T20:07:58;5.00;75.00
1716;DHT22;855;48.824;9.220;2023-11-22T20:10:25;5.00;75.00
1716;DHT22;855;48.824;9.220;2023-11-22T20:12:52;5.00;75.10
1716;DHT22;855;48.824;9.220;2023-11-22T20:15:19;5.00;75.40
1716;DHT22;855;48.824;9.220;2023-11-22T20:17:47;5.00;75.00
1716;DHT22;855;48.824;9.220;2023-11-22T20:20:14;5.00;75.00
1716;DHT22;855;48.824;9.220;2023-11-22T20:22:41;5.00;75.40
1716;DHT22;855;48.824;9.220;2023-11-22T20:25:08;5.00;76.20
1716;DHT22;855;48.824;9.220;2023-11-22T20:27:35;5.00;75.90
1716;DHT22;855;48.824;9.220;2023-11-22T20:30:03;5.00;76.00
1716;DHT22;855;48.824;9.220;2023-11-22T20:32:29;5.00;76.30
1716;DHT22;855;48.824;9.220;2023-11-22T20:34:58;5.00;76.60
1716;DHT22;855;48.824;9.220;2023-11-22T20:37:42;5.00;77.00
1716;DHT22;855;48.824;9.220;2023-11-22T20:40:36;5.10;76.70
1716;DHT22;855;48.824;9.220;2023-11-22T20:43:03;5.10;76.60
1716;DHT22;855;48.824;9.220;2023-11-22T20:45:30;5.00;76.20
1716;DHT22;855;48.824;9.220;2023-11-22T20:47:57;5.00;76.20
1716;DHT22;855;48.824;9.220;2023-11-22T20:50:48;4.90;76.30
1716;DHT22;855;48.824;9.220;2023-11-22T20:53:15;5.00;76.20
1716;DHT22;855;48.824;9.220;2023-11-22T20:55:42;5.10;76.20
1716;DHT22;855;48.824;9.220;2023-11-22T20:58:09;5.00;76.30
1716;DHT22;855;48.824;9.220;2023-11-22T21:00:36;5.00;76.00
1716;DHT22;855;48.824;9.220;2023-11-22T21:03:03;5.00;76.00
1716;DHT22;855;48.824;9.220;2023-11-22T21:05:29;4.90;75.90
1716;DHT22;855;48.824;9.220;2023-11-22T21:08:03;4.90;76.30
1716;DHT22;855;48.824;9.220;2023-11-22T21:10:30;5.00;76.40
1716;DHT22;855;48.824;9.220;2023-11-22T21:12:57;5.00;76.40
1716;DHT22;855;48.824;9.220;2023-11-22T21:15:35;5.00;76.40
1716;DHT22;855;48.824;9.220;2023-11-22T21:18:20;5.00;76.40
1716;DHT22;855;48.824;9.220;2023-11-22T21:23:13;5.10;76.30
1716;DHT22;855;48.824;9.220;2023-11-22T21:25:48;5.00;77.00
1716;DHT22;855;48.824;9.220;2023-11-22T21:31:39;5.00;77.00
1716;DHT22;855;48.824;9.220;2023-11-22T21:34:06;5.00;77.10
1716;DHT22;855;48.824;9.220;2023-11-22T21:36:33;5.00;77.50
1716;DHT22;855;48.824;9.220;2023-11-22T21:39:05;5.00;77.60
1716;DHT22;855;48.824;9.220;2023-11-22T21:41:53;4.90;78.00
1716;DHT22;855;48.824;9.220;2023-11-22T21:44:20;4.80;78.70
1716;DHT22;855;48.824;9.220;2023-11-22T21:46:47;4.80;78.80
1716;DHT22;855;48.824;9.220;2023-11-22T21:49:19;4.70;79.20
1716;DHT22;855;48.824;9.220;2023-11-22T21:51:52;4.70;79.60
1716;DHT22;855;48.824;9.220;2023-11-22T21:54:20;4.70;79.60
1716;DHT22;855;48.824;9.220;2023-11-22T21:56:47;4.70;79.50
1716;DHT22;855;48.824;9.220;2023-11-22T21:59:15;4.70;79.50
1716;DHT22;855;48.824;9.220;2023-11-22T22:01:45;4.70;79.30
1716;DHT22;855;48.824;9.220;2023-11-22T22:04:12;4.70;79.10
1716;DHT22;855;48.824;9.220;2023-11-22T22:06:45;4.60;79.30
1716;DHT22;855;48.824;9.220;2023-11-22T22:09:12;4.60;79.60
1716;DHT22;855;48.824;9.220;2023-11-22T22:11:41;4.50;79.70
1716;DHT22;855;48.824;9.220;2023-11-22T22:14:11;4.50;80.00
1716;DHT22;855;48.824;9.220;2023-11-22T22:16:46;4.50;80.40
1716;DHT22;855;48.824;9.220;2023-11-22T22:19:12;4.40;80.70
1716;DHT22;855;48.824;9.220;2023-11-22T22:21:39;4.40;81.10
1716;DHT22;855;48.824;9.220;2023-11-22T22:24:07;4.40;81.20
1716;DHT22;855;48.824;9.220;2023-11-22T22:26:34;4.40;81.20
1716;DHT22;855;48.824;9.220;2023-11-22T22:29:02;4.40;81.50
1716;DHT22;855;48.824;9.220;2023-11-22T22:31:29;4.30;81.60
1716;DHT22;855;48.824;9.220;2023-11-22T22:33:56;4.30;82.00
1716;DHT22;855;48.824;9.220;2023-11-22T22:36:23;4.30;82.40
1716;DHT22;855;48.824;9.220;2023-11-22T22:38:50;4.30;82.80
1716;DHT22;855;48.824;9.220;2023-11-22T22:41:19;4.20;83.60
1716;DHT22;855;48.824;9.220;2023-11-22T22:46:54;4.30;84.10
1716;DHT22;855;48.824;9.220;2023-11-22T22:49:21;4.20;84.40
1716;DHT22;855;48.824;9.220;2023-11-22T22:51:47;4.20;84.80
1716;DHT22;855;48.824;9.220;2023-11-22T23:02:31;4.10;85.80
1716;DHT22;855;48.824;9.220;2023-11-22T23:04:57;4.10;86.20
1716;DHT22;855;48.824;9.220;2023-11-22T23:07:24;4.10;86.40
1716;DHT22;855;48.824;9.220;2023-11-22T23:09:53;4.10;86.70
1716;DHT22;855;48.824;9.220;2023-11-22T23:12:22;4.10;86.90
1716;DHT22;855;48.824;9.220;2023-11-22T23:14:48;4.20;86.70
1716;DHT22;855;48.824;9.220;2023-11-22T23:20:39;4.30;86.40
1716;DHT22;855;48.824;9.220;2023-11-22T23:26:18;4.30;86.10
1716;DHT22;855;48.824;9.220;2023-11-22T23:28:45;4.30;86.20
1716;DHT22;855;48.824;9.220;2023-11-22T23:31:12;4.30;86.10
1716;DHT22;855;48.824;9.220;2023-11-22T23:33:39;4.30;86.00
1716;DHT22;855;48.824;9.220;2023-11-22T23:36:07;4.20;86.20
1716;DHT22;855;48.824;9.220;2023-11-22T23:38:36;4.20;86.60
1716;DHT22;855;48.824;9.220;2023-11-22T23:41:03;4.20;86.90
1716;DHT22;855;48.824;9.220;2023-11-22T23:43:31;4.20;86.90
1716;DHT22;855;48.824;9.220;2023-11-22T23:46:00;4.20;86.70
1716;DHT22;855;48.824;9.220;2023-11-22T23:48:27;4.20;86.90
1716;DHT22;855;48.824;9.220;2023-11-22T23:50:59;4.20;86.90
1716;DHT22;855;48.824;9.220;2023-11-22T23:57:13;3.80;87.90
1716;DHT22;855;48.824;9.220;2023-11-22T23:59:40;3.80;88.50
